Impacts METAR Board
IDs:

KPIT - Pittsburgh Intl, PA, US

Updated at: 1300 UTC 16 Sep 2019
Potential Impact None Slight Moderate High
Time 16/01Z 16/02Z 16/03Z 16/04Z 16/05Z 16/06Z 16/07Z 16/08Z 16/09Z 16/10Z 16/11Z 16/12Z 16/13Z
Temp72 70 68 67 66 66 67 65 67 66 65 65 68
Dewpt60 61 61 59 59 59 59 60 60 60 61 61 61
Altim30.10 30.11 30.11 30.10 30.10 30.10 30.09 30.09 30.09 30.09 30.09 30.10 30.10
VIS10 10 10 10 10 10 10 10 10 10 10 10 10
CIG250 250 110 -- 120 110 60 70 100 65 60 65 70
CoverBKNBKNBKNSCTBKNOVCOVCOVCOVCOVCBKNBKNBKN
FltCatVFRVFRVFRVFRVFRVFRVFRVFRVFRVFRVFRVFRVFR
WX--------------------------
WDir170001800000000170180
WSpd4 0 0 3 0 0 0 0 0 0 0 3 3
WGst-- -- -- -- -- -- -- -- -- -- -- -- --
Raw hourly METARs
KPIT 160051Z 17004KT 10SM SCT110 BKN250 22/16 A3010 RMK AO2 SLP196 T02220156
KPIT 160151Z 00000KT 10SM SCT110 BKN250 21/16 A3011 RMK AO2 SLP198 T02110161
KPIT 160251Z 00000KT 10SM BKN110 BKN250 20/16 A3011 RMK AO2 SLP197 T02000161 55001
KPIT 160351Z 18003KT 10SM FEW110 SCT250 19/15 A3010 RMK AO2 SLP192 T01940150
KPIT 160451Z 00000KT 10SM FEW090 BKN120 19/15 A3010 RMK AO2 SLP192 T01890150 402670117
KPIT 160551Z 00000KT 10SM SCT080 OVC110 19/15 A3010 RMK AO2 SLP192 T01890150 10233 20178 55003
KPIT 160651Z 00000KT 10SM BKN060 OVC090 19/15 A3009 RMK AO2 RAB15E44 SLP188 P0000 T01940150
KPIT 160751Z 00000KT 10SM BKN070 OVC090 18/16 A3009 RMK AO2 SLP188 T01830156
KPIT 160851Z 00000KT 10SM SCT070 OVC100 19/16 A3009 RMK AO2 SLP190 60000 T01940156 55003
KPIT 160951Z 00000KT 10SM OVC065 19/16 A3009 RMK AO2 SLP190 T01890156
KPIT 161051Z 00000KT 10SM BKN060 BKN080 18/16 A3009 RMK AO2 SLP190 T01830161
KPIT 161151Z 17003KT 10SM BKN065 BKN080 18/16 A3010 RMK AO2 SLP194 60000 T01830161 10194 20178 53003
KPIT 161251Z 18003KT 10SM SCT050 BKN070 BKN085 20/16 A3010 RMK AO2 SLP194 T02000161



Page loaded:  13:30 UTC  |   06:30 AM Pacific  |   07:30 AM Mountain  |   08:30 AM Central  |   09:30 AM Eastern

 

ADVISORIES

FORECASTS

FORECASTS

OBSERVATIONS

USER TOOLS

ABOUT US